Saturday, October 20, 2018, 7:07 AM EDT
Back to Local

KMQE, Milton Blue Hill Observ

Location: Milton, MA, United States Lat: 42.217
Local Time: 7:07 AM EDT (11:07 GMT) Lon: -71.117
Time Zone: US/Eastern Elev: 629 ft

Show me the last for .
Show Decoded

2018-10-20 05:56 METAR KMQE 200956Z AUTO 21014G23KT 12/08 A2969 RMK AO1 SLP066 T01220078 =
2018-10-20 04:56 METAR KMQE 200856Z AUTO 20018G27KT 12/07 A2971 RMK AO1 PK WND 22029/0835 SLP071
                 T01220072 56031 =
2018-10-20 03:56 METAR KMQE 200756Z AUTO 20016G27KT 12/07 A2974 RMK AO1 PK WND 20029/0730 SLP081
                 T01220072 =
2018-10-20 02:56 METAR KMQE 200656Z AUTO 20017G26KT 11/08 A2977 RMK AO1 PK WND 19026/0653 SLP092
                 T01110083 =
2018-10-20 01:56 METAR KMQE 200556Z AUTO 19015KT 11/07 A2980 RMK AO1 SLP103 T01060072 10106 20100
                 58029 =
2018-10-20 00:56 METAR KMQE 200456Z AUTO 21014KT 10/06 A2985 RMK AO1 SLP119 T01000061 401501006 =
2018-10-19 23:56 METAR KMQE 200356Z AUTO 21015G23KT 10/05 A2986 RMK AO1 PK WND 21031/0327 SLP123
                 T01000050 =
2018-10-19 22:56 METAR KMQE 200256Z AUTO 21019G25KT 10/04 A2989 RMK AO1 SLP135 T01000044 56020 =
2018-10-19 21:56 METAR KMQE 200156Z AUTO 20017G24KT 10/04 A2991 RMK AO1 PK WND 20028/0137 SLP141
                 T01000039 =
2018-10-19 20:56 METAR KMQE 200056Z AUTO 21017G26KT 10/04 A2993 RMK AO1 PK WND 21026/0056 SLP150
                 T01000039 =
2018-10-19 19:56 METAR KMQE 192356Z AUTO 21016G22KT 11/04 A2995 RMK AO1 SLP157 T01060039 10150
                 20106 58008 =
2018-10-19 18:56 METAR KMQE 192256Z AUTO 20014G23KT 11/02 A2998 RMK AO1 SLP167 T01110022 =
2018-10-19 17:56 METAR KMQE 192156Z AUTO 20012KT 12/03 A2997 RMK AO1 SLP162 T01170033 =
2018-10-19 16:56 METAR KMQE 192056Z AUTO 22016G23KT 14/01 A2998 RMK AO1 SLP165 T01390011 56024 =
2018-10-19 15:56 METAR KMQE 191956Z AUTO 21014G23KT 14/M01 A3000 RMK AO1 SLP171 T01441006 =
2018-10-19 14:56 METAR KMQE 191856Z AUTO 22013G24KT 14/01 A3001 RMK AO1 SLP176 T01440006 =
2018-10-19 13:56 METAR KMQE 191756Z AUTO 22013G23KT 13/01 A3005 RMK AO1 SLP190 T01330011 10133
                 20011 58035 =
2018-10-19 12:56 METAR KMQE 191656Z AUTO 23013G21KT 12/01 A3009 RMK AO1 SLP203 T01220011 =
2018-10-19 11:56 METAR KMQE 191556Z AUTO 24012G20KT 11/01 A3013 RMK AO1 SLP218 T01060006 =
2018-10-19 10:56 METAR KMQE 191456Z AUTO 23010G18KT 09/M01 A3016 RMK AO1 SLP227 T00891006 58019 =
2018-10-19 09:56 METAR KMQE 191356Z AUTO 24010G19KT 07/M02 A3018 RMK AO1 SLP237 T00671017 =
2018-10-19 08:56 METAR KMQE 191256Z AUTO 24011KT 03/M02 A3020 RMK AO1 SLP242 T00331022 =
2018-10-19 07:56 METAR KMQE 191156Z AUTO 22011KT 01/M03 A3021 RMK AO1 SLP248 T00111033 10011
                 21006 55004 =

Support USWX by starting your Amazon purchase here.